sensor_id;sensor_type;location;lat;lon;timestamp;P1;durP1;ratioP1;P2;durP2;ratioP2
7831;SDS011;3961;42.058;25.586;2023-04-01T00:00:16;5.73;;;3.00;;
7831;SDS011;3961;42.058;25.586;2023-04-01T00:02:42;4.47;;;3.00;;
7831;SDS011;3961;42.058;25.586;2023-04-01T00:05:08;12.00;;;3.63;;
7831;SDS011;3961;42.058;25.586;2023-04-01T00:07:35;9.37;;;3.50;;
7831;SDS011;3961;42.058;25.586;2023-04-01T00:10:09;10.83;;;3.57;;
7831;SDS011;3961;42.058;25.586;2023-04-01T00:12:36;6.97;;;3.37;;
7831;SDS011;3961;42.058;25.586;2023-04-01T00:15:02;7.83;;;3.97;;
7831;SDS011;3961;42.058;25.586;2023-04-01T00:17:29;14.03;;;3.67;;
7831;SDS011;3961;42.058;25.586;2023-04-01T00:19:55;14.80;;;4.37;;
7831;SDS011;3961;42.058;25.586;2023-04-01T00:22:21;17.83;;;4.57;;
7831;SDS011;3961;42.058;25.586;2023-04-01T00:24:48;20.53;;;4.47;;
7831;SDS011;3961;42.058;25.586;2023-04-01T00:27:14;14.77;;;4.03;;
7831;SDS011;3961;42.058;25.586;2023-04-01T00:29:47;16.77;;;4.13;;
7831;SDS011;3961;42.058;25.586;2023-04-01T00:32:13;20.97;;;5.53;;
7831;SDS011;3961;42.058;25.586;2023-04-01T00:34:40;26.97;;;5.17;;
7831;SDS011;3961;42.058;25.586;2023-04-01T00:37:06;24.47;;;5.43;;
7831;SDS011;3961;42.058;25.586;2023-04-01T00:39:33;26.07;;;5.77;;
7831;SDS011;3961;42.058;25.586;2023-04-01T00:41:59;28.93;;;5.50;;
7831;SDS011;3961;42.058;25.586;2023-04-01T00:44:27;26.80;;;5.90;;
7831;SDS011;3961;42.058;25.586;2023-04-01T00:46:58;32.00;;;5.90;;
7831;SDS011;3961;42.058;25.586;2023-04-01T00:49:26;33.53;;;7.13;;
7831;SDS011;3961;42.058;25.586;2023-04-01T00:51:57;37.63;;;6.30;;
7831;SDS011;3961;42.058;25.586;2023-04-01T00:54:25;22.73;;;6.00;;
7831;SDS011;3961;42.058;25.586;2023-04-01T00:59:31;8.33;;;3.63;;
7831;SDS011;3961;42.058;25.586;2023-04-01T01:02:12;15.83;;;3.60;;
7831;SDS011;3961;42.058;25.586;2023-04-01T01:04:39;8.37;;;3.20;;
7831;SDS011;3961;42.058;25.586;2023-04-01T01:10:03;12.07;;;3.90;;
7831;SDS011;3961;42.058;25.586;2023-04-01T01:15:32;7.73;;;3.10;;
7831;SDS011;3961;42.058;25.586;2023-04-01T01:27:06;4.30;;;2.50;;
7831;SDS011;3961;42.058;25.586;2023-04-01T01:35:24;5.43;;;2.67;;
7831;SDS011;3961;42.058;25.586;2023-04-01T01:37:57;10.03;;;2.83;;
7831;SDS011;3961;42.058;25.586;2023-04-01T01:40:29;6.93;;;3.07;;
7831;SDS011;3961;42.058;25.586;2023-04-01T01:42:59;7.03;;;2.80;;
7831;SDS011;3961;42.058;25.586;2023-04-01T01:45:29;4.80;;;2.90;;
7831;SDS011;3961;42.058;25.586;2023-04-01T01:47:56;6.17;;;3.47;;
7831;SDS011;3961;42.058;25.586;2023-04-01T01:50:25;8.00;;;3.57;;
7831;SDS011;3961;42.058;25.586;2023-04-01T01:52:59;8.33;;;3.13;;
7831;SDS011;3961;42.058;25.586;2023-04-01T01:57:52;4.53;;;3.20;;
7831;SDS011;3961;42.058;25.586;2023-04-01T02:00:19;6.60;;;3.40;;
7831;SDS011;3961;42.058;25.586;2023-04-01T02:02:46;7.83;;;3.27;;
7831;SDS011;3961;42.058;25.586;2023-04-01T02:05:17;5.70;;;3.20;;
7831;SDS011;3961;42.058;25.586;2023-04-01T02:07:47;5.90;;;3.50;;
7831;SDS011;3961;42.058;25.586;2023-04-01T02:10:22;8.40;;;3.63;;
7831;SDS011;3961;42.058;25.586;2023-04-01T02:12:52;4.77;;;3.47;;
7831;SDS011;3961;42.058;25.586;2023-04-01T02:15:22;6.57;;;3.37;;
7831;SDS011;3961;42.058;25.586;2023-04-01T02:17:52;7.50;;;3.60;;
7831;SDS011;3961;42.058;25.586;2023-04-01T02:20:20;7.00;;;3.73;;
7831;SDS011;3961;42.058;25.586;2023-04-01T02:22:52;8.90;;;3.50;;
7831;SDS011;3961;42.058;25.586;2023-04-01T02:25:20;5.33;;;3.33;;
7831;SDS011;3961;42.058;25.586;2023-04-01T02:27:56;5.73;;;3.60;;
7831;SDS011;3961;42.058;25.586;2023-04-01T02:30:24;4.47;;;3.43;;
7831;SDS011;3961;42.058;25.586;2023-04-01T02:32:52;6.20;;;3.73;;
7831;SDS011;3961;42.058;25.586;2023-04-01T02:35:18;7.53;;;3.97;;
7831;SDS011;3961;42.058;25.586;2023-04-01T02:37:45;6.33;;;3.80;;
7831;SDS011;3961;42.058;25.586;2023-04-01T02:40:14;5.87;;;3.80;;
7831;SDS011;3961;42.058;25.586;2023-04-01T02:42:41;6.50;;;3.90;;
7831;SDS011;3961;42.058;25.586;2023-04-01T02:45:07;6.40;;;3.53;;
7831;SDS011;3961;42.058;25.586;2023-04-01T02:47:33;8.07;;;4.20;;
7831;SDS011;3961;42.058;25.586;2023-04-01T02:49:59;6.30;;;4.13;;
7831;SDS011;3961;42.058;25.586;2023-04-01T02:52:24;7.93;;;4.07;;
7831;SDS011;3961;42.058;25.586;2023-04-01T02:54:50;9.93;;;4.83;;
7831;SDS011;3961;42.058;25.586;2023-04-01T02:57:16;6.53;;;4.17;;
7831;SDS011;3961;42.058;25.586;2023-04-01T02:59:41;9.03;;;3.47;;
7831;SDS011;3961;42.058;25.586;2023-04-01T03:02:07;9.23;;;4.23;;
7831;SDS011;3961;42.058;25.586;2023-04-01T03:04:32;6.90;;;4.17;;
7831;SDS011;3961;42.058;25.586;2023-04-01T03:06:58;6.37;;;4.20;;
7831;SDS011;3961;42.058;25.586;2023-04-01T03:09:23;7.17;;;5.00;;
7831;SDS011;3961;42.058;25.586;2023-04-01T03:11:49;9.93;;;4.87;;
7831;SDS011;3961;42.058;25.586;2023-04-01T03:14:14;10.27;;;4.80;;
7831;SDS011;3961;42.058;25.586;2023-04-01T03:16:40;7.40;;;4.47;;
7831;SDS011;3961;42.058;25.586;2023-04-01T03:19:05;7.23;;;5.00;;
7831;SDS011;3961;42.058;25.586;2023-04-01T03:21:31;7.47;;;5.20;;
7831;SDS011;3961;42.058;25.586;2023-04-01T03:23:56;9.07;;;4.90;;
7831;SDS011;3961;42.058;25.586;2023-04-01T03:26:22;10.83;;;4.87;;
7831;SDS011;3961;42.058;25.586;2023-04-01T03:28:47;8.80;;;5.43;;
7831;SDS011;3961;42.058;25.586;2023-04-01T03:31:13;9.17;;;5.40;;
7831;SDS011;3961;42.058;25.586;2023-04-01T03:33:39;7.73;;;5.07;;
7831;SDS011;3961;42.058;25.586;2023-04-01T03:36:05;15.93;;;5.60;;
7831;SDS011;3961;42.058;25.586;2023-04-01T03:38:32;19.40;;;6.53;;
7831;SDS011;3961;42.058;25.586;2023-04-01T03:40:58;17.47;;;5.60;;
7831;SDS011;3961;42.058;25.586;2023-04-01T03:43:24;11.13;;;5.47;;
7831;SDS011;3961;42.058;25.586;2023-04-01T03:45:50;9.23;;;5.10;;
7831;SDS011;3961;42.058;25.586;2023-04-01T03:48:16;11.37;;;5.77;;
7831;SDS011;3961;42.058;25.586;2023-04-01T03:50:43;9.13;;;5.37;;
7831;SDS011;3961;42.058;25.586;2023-04-01T03:53:10;10.50;;;5.67;;
7831;SDS011;3961;42.058;25.586;2023-04-01T03:55:36;11.57;;;5.60;;
7831;SDS011;3961;42.058;25.586;2023-04-01T03:58:02;14.33;;;5.40;;
7831;SDS011;3961;42.058;25.586;2023-04-01T04:00:29;12.07;;;6.17;;
7831;SDS011;3961;42.058;25.586;2023-04-01T04:02:55;13.17;;;6.00;;
7831;SDS011;3961;42.058;25.586;2023-04-01T04:05:22;10.40;;;6.10;;
7831;SDS011;3961;42.058;25.586;2023-04-01T04:07:48;9.77;;;6.07;;
7831;SDS011;3961;42.058;25.586;2023-04-01T04:10:13;10.37;;;5.87;;
7831;SDS011;3961;42.058;25.586;2023-04-01T04:12:39;8.80;;;6.13;;
7831;SDS011;3961;42.058;25.586;2023-04-01T04:15:05;9.40;;;5.77;;
7831;SDS011;3961;42.058;25.586;2023-04-01T04:17:31;7.50;;;5.53;;
7831;SDS011;3961;42.058;25.586;2023-04-01T04:19:57;7.27;;;5.07;;
7831;SDS011;3961;42.058;25.586;2023-04-01T04:22:23;10.40;;;6.60;;
7831;SDS011;3961;42.058;25.586;2023-04-01T04:24:48;12.10;;;6.03;;
7831;SDS011;3961;42.058;25.586;2023-04-01T04:27:14;8.77;;;5.53;;
7831;SDS011;3961;42.058;25.586;2023-04-01T04:29:39;12.37;;;5.90;;
7831;SDS011;3961;42.058;25.586;2023-04-01T04:32:05;10.03;;;5.33;;
7831;SDS011;3961;42.058;25.586;2023-04-01T04:34:31;11.37;;;6.00;;
7831;SDS011;3961;42.058;25.586;2023-04-01T04:36:56;9.50;;;5.23;;
7831;SDS011;3961;42.058;25.586;2023-04-01T04:39:22;12.13;;;5.40;;
7831;SDS011;3961;42.058;25.586;2023-04-01T04:41:47;7.33;;;5.13;;
7831;SDS011;3961;42.058;25.586;2023-04-01T04:44:13;11.37;;;5.23;;
7831;SDS011;3961;42.058;25.586;2023-04-01T04:46:38;14.27;;;5.33;;
7831;SDS011;3961;42.058;25.586;2023-04-01T04:49:04;13.80;;;5.30;;
7831;SDS011;3961;42.058;25.586;2023-04-01T04:51:31;8.97;;;5.80;;
7831;SDS011;3961;42.058;25.586;2023-04-01T04:53:59;17.07;;;5.73;;
7831;SDS011;3961;42.058;25.586;2023-04-01T04:56:25;16.73;;;5.57;;
7831;SDS011;3961;42.058;25.586;2023-04-01T04:58:51;10.07;;;5.60;;
7831;SDS011;3961;42.058;25.586;2023-04-01T05:01:17;21.67;;;9.03;;
7831;SDS011;3961;42.058;25.586;2023-04-01T05:03:44;16.03;;;6.97;;
7831;SDS011;3961;42.058;25.586;2023-04-01T05:06:11;10.83;;;6.70;;
7831;SDS011;3961;42.058;25.586;2023-04-01T05:08:38;12.10;;;6.23;;
7831;SDS011;3961;42.058;25.586;2023-04-01T05:11:06;10.20;;;5.70;;
7831;SDS011;3961;42.058;25.586;2023-04-01T05:13:37;12.73;;;5.60;;
7831;SDS011;3961;42.058;25.586;2023-04-01T05:16:03;8.30;;;5.70;;
7831;SDS011;3961;42.058;25.586;2023-04-01T05:18:28;10.90;;;6.07;;
7831;SDS011;3961;42.058;25.586;2023-04-01T05:20:54;10.57;;;5.10;;
7831;SDS011;3961;42.058;25.586;2023-04-01T05:23:21;11.93;;;6.20;;
7831;SDS011;3961;42.058;25.586;2023-04-01T05:25:47;14.60;;;6.07;;
7831;SDS011;3961;42.058;25.586;2023-04-01T05:28:14;8.77;;;5.37;;
7831;SDS011;3961;42.058;25.586;2023-04-01T05:30:41;12.13;;;6.10;;
7831;SDS011;3961;42.058;25.586;2023-04-01T05:33:07;9.60;;;5.87;;
7831;SDS011;3961;42.058;25.586;2023-04-01T05:35:34;12.20;;;5.67;;
7831;SDS011;3961;42.058;25.586;2023-04-01T05:37:59;14.73;;;6.03;;
7831;SDS011;3961;42.058;25.586;2023-04-01T05:40:25;12.10;;;5.97;;
7831;SDS011;3961;42.058;25.586;2023-04-01T05:42:50;8.17;;;5.90;;
7831;SDS011;3961;42.058;25.586;2023-04-01T05:45:16;10.97;;;6.13;;
7831;SDS011;3961;42.058;25.586;2023-04-01T05:47:41;10.00;;;6.17;;
7831;SDS011;3961;42.058;25.586;2023-04-01T05:50:08;12.53;;;7.07;;
7831;SDS011;3961;42.058;25.586;2023-04-01T05:52:35;13.77;;;5.97;;
7831;SDS011;3961;42.058;25.586;2023-04-01T05:55:01;12.07;;;5.47;;
7831;SDS011;3961;42.058;25.586;2023-04-01T05:57:28;12.90;;;5.50;;
7831;SDS011;3961;42.058;25.586;2023-04-01T05:59:53;12.97;;;6.03;;
7831;SDS011;3961;42.058;25.586;2023-04-01T06:02:19;10.03;;;5.73;;
7831;SDS011;3961;42.058;25.586;2023-04-01T06:04:45;9.47;;;5.90;;
7831;SDS011;3961;42.058;25.586;2023-04-01T06:07:14;11.20;;;5.87;;
7831;SDS011;3961;42.058;25.586;2023-04-01T06:09:41;9.90;;;6.30;;
7831;SDS011;3961;42.058;25.586;2023-04-01T06:12:12;20.50;;;6.53;;
7831;SDS011;3961;42.058;25.586;2023-04-01T06:20:12;9.17;;;5.30;;
7831;SDS011;3961;42.058;25.586;2023-04-01T06:31:09;11.27;;;5.80;;
7831;SDS011;3961;42.058;25.586;2023-04-01T06:33:40;8.03;;;5.27;;
7831;SDS011;3961;42.058;25.586;2023-04-01T06:36:43;14.07;;;5.63;;
7831;SDS011;3961;42.058;25.586;2023-04-01T06:39:18;9.97;;;5.53;;
7831;SDS011;3961;42.058;25.586;2023-04-01T06:42:10;12.50;;;5.80;;
7831;SDS011;3961;42.058;25.586;2023-04-01T06:45:07;8.27;;;5.43;;
7831;SDS011;3961;42.058;25.586;2023-04-01T06:52:50;11.27;;;6.10;;
7831;SDS011;3961;42.058;25.586;2023-04-01T06:55:36;16.00;;;6.90;;
7831;SDS011;3961;42.058;25.586;2023-04-01T06:58:19;12.57;;;6.13;;
7831;SDS011;3961;42.058;25.586;2023-04-01T07:00:56;17.20;;;6.30;;
7831;SDS011;3961;42.058;25.586;2023-04-01T07:03:31;9.33;;;5.67;;
7831;SDS011;3961;42.058;25.586;2023-04-01T07:06:04;13.30;;;6.27;;
7831;SDS011;3961;42.058;25.586;2023-04-01T07:08:34;10.93;;;5.93;;
7831;SDS011;3961;42.058;25.586;2023-04-01T07:11:08;10.77;;;5.50;;
7831;SDS011;3961;42.058;25.586;2023-04-01T07:16:21;11.13;;;6.00;;
7831;SDS011;3961;42.058;25.586;2023-04-01T07:19:12;13.27;;;6.40;;
7831;SDS011;3961;42.058;25.586;2023-04-01T07:22:05;10.63;;;5.40;;
7831;SDS011;3961;42.058;25.586;2023-04-01T07:24:44;18.50;;;6.20;;
7831;SDS011;3961;42.058;25.586;2023-04-01T07:27:11;18.60;;;6.83;;
7831;SDS011;3961;42.058;25.586;2023-04-01T07:29:38;24.43;;;10.67;;
7831;SDS011;3961;42.058;25.586;2023-04-01T07:45:35;55.57;;;24.63;;
7831;SDS011;3961;42.058;25.586;2023-04-01T07:50:55;33.37;;;16.83;;
7831;SDS011;3961;42.058;25.586;2023-04-01T07:56:08;44.17;;;16.87;;
7831;SDS011;3961;42.058;25.586;2023-04-01T08:01:05;29.40;;;12.03;;
7831;SDS011;3961;42.058;25.586;2023-04-01T08:04:00;21.30;;;9.97;;
7831;SDS011;3961;42.058;25.586;2023-04-01T08:11:58;21.37;;;10.03;;
7831;SDS011;3961;42.058;25.586;2023-04-01T08:28:33;15.47;;;6.10;;
7831;SDS011;3961;42.058;25.586;2023-04-01T08:31:12;15.10;;;6.17;;
7831;SDS011;3961;42.058;25.586;2023-04-01T08:33:39;19.53;;;5.70;;
7831;SDS011;3961;42.058;25.586;2023-04-01T08:36:10;19.67;;;4.73;;
7831;SDS011;3961;42.058;25.586;2023-04-01T08:41:15;8.83;;;3.53;;
7831;SDS011;3961;42.058;25.586;2023-04-01T08:46:35;15.17;;;4.07;;
7831;SDS011;3961;42.058;25.586;2023-04-01T08:54:47;16.60;;;4.40;;
7831;SDS011;3961;42.058;25.586;2023-04-01T08:57:24;14.63;;;4.80;;
7831;SDS011;3961;42.058;25.586;2023-04-01T09:28:37;16.57;;;4.40;;
7831;SDS011;3961;42.058;25.586;2023-04-01T09:44:59;13.13;;;4.33;;
7831;SDS011;3961;42.058;25.586;2023-04-01T10:04:03;11.03;;;3.37;;
7831;SDS011;3961;42.058;25.586;2023-04-01T10:12:37;13.10;;;3.17;;
7831;SDS011;3961;42.058;25.586;2023-04-01T11:10:04;18.87;;;3.93;;
7831;SDS011;3961;42.058;25.586;2023-04-01T11:21:02;19.57;;;3.70;;
7831;SDS011;3961;42.058;25.586;2023-04-01T11:23:49;20.83;;;3.93;;
7831;SDS011;3961;42.058;25.586;2023-04-01T11:32:09;22.03;;;3.57;;
7831;SDS011;3961;42.058;25.586;2023-04-01T11:40:18;20.50;;;4.30;;
7831;SDS011;3961;42.058;25.586;2023-04-01T11:42:54;22.47;;;4.40;;
7831;SDS011;3961;42.058;25.586;2023-04-01T11:48:14;15.93;;;4.03;;
7831;SDS011;3961;42.058;25.586;2023-04-01T12:01:52;27.47;;;4.10;;
7831;SDS011;3961;42.058;25.586;2023-04-01T12:04:39;19.17;;;4.47;;
7831;SDS011;3961;42.058;25.586;2023-04-01T12:07:21;22.03;;;4.20;;
7831;SDS011;3961;42.058;25.586;2023-04-01T12:12:51;14.80;;;4.03;;
7831;SDS011;3961;42.058;25.586;2023-04-01T12:15:29;17.90;;;3.60;;
7831;SDS011;3961;42.058;25.586;2023-04-01T12:18:13;18.70;;;4.13;;
7831;SDS011;3961;42.058;25.586;2023-04-01T12:34:45;22.90;;;4.30;;
7831;SDS011;3961;42.058;25.586;2023-04-01T12:51:19;21.13;;;3.70;;
7831;SDS011;3961;42.058;25.586;2023-04-01T12:59:31;11.30;;;4.07;;
7831;SDS011;3961;42.058;25.586;2023-04-01T13:05:01;15.23;;;3.37;;
7831;SDS011;3961;42.058;25.586;2023-04-01T13:23:56;11.67;;;3.47;;
7831;SDS011;3961;42.058;25.586;2023-04-01T13:29:33;27.77;;;4.10;;
7831;SDS011;3961;42.058;25.586;2023-04-01T13:32:25;16.10;;;4.50;;
7831;SDS011;3961;42.058;25.586;2023-04-01T13:35:36;14.57;;;3.60;;
7831;SDS011;3961;42.058;25.586;2023-04-01T13:49:21;18.90;;;3.67;;
7831;SDS011;3961;42.058;25.586;2023-04-01T13:54:56;17.97;;;3.83;;
7831;SDS011;3961;42.058;25.586;2023-04-01T14:03:26;17.37;;;3.43;;
7831;SDS011;3961;42.058;25.586;2023-04-01T14:11:17;16.87;;;3.73;;
7831;SDS011;3961;42.058;25.586;2023-04-01T14:16:55;11.83;;;3.10;;
7831;SDS011;3961;42.058;25.586;2023-04-01T14:19:44;24.27;;;4.00;;
7831;SDS011;3961;42.058;25.586;2023-04-01T14:36:02;18.67;;;3.77;;
7831;SDS011;3961;42.058;25.586;2023-04-01T14:38:54;22.07;;;6.60;;
7831;SDS011;3961;42.058;25.586;2023-04-01T14:47:58;18.13;;;5.13;;
7831;SDS011;3961;42.058;25.586;2023-04-01T14:50:51;22.60;;;4.97;;
7831;SDS011;3961;42.058;25.586;2023-04-01T14:55:57;14.47;;;4.67;;
7831;SDS011;3961;42.058;25.586;2023-04-01T14:58:25;11.97;;;4.20;;
7831;SDS011;3961;42.058;25.586;2023-04-01T15:03:45;10.33;;;3.43;;
7831;SDS011;3961;42.058;25.586;2023-04-01T15:09:28;9.63;;;3.40;;
7831;SDS011;3961;42.058;25.586;2023-04-01T15:21:15;11.77;;;3.57;;
7831;SDS011;3961;42.058;25.586;2023-04-01T15:24:10;10.80;;;3.60;;
7831;SDS011;3961;42.058;25.586;2023-04-01T15:40:19;5.80;;;3.27;;
7831;SDS011;3961;42.058;25.586;2023-04-01T15:43:00;7.77;;;3.63;;
7831;SDS011;3961;42.058;25.586;2023-04-01T16:10:09;11.00;;;4.80;;
7831;SDS011;3961;42.058;25.586;2023-04-01T16:21:36;9.33;;;4.53;;
7831;SDS011;3961;42.058;25.586;2023-04-01T16:26:47;8.73;;;4.30;;
7831;SDS011;3961;42.058;25.586;2023-04-01T16:31:50;9.73;;;4.17;;
7831;SDS011;3961;42.058;25.586;2023-04-01T16:34:41;9.13;;;4.67;;
7831;SDS011;3961;42.058;25.586;2023-04-01T16:37:36;7.93;;;4.00;;
7831;SDS011;3961;42.058;25.586;2023-04-01T16:45:30;5.87;;;3.77;;
7831;SDS011;3961;42.058;25.586;2023-04-01T16:48:14;5.83;;;3.87;;
7831;SDS011;3961;42.058;25.586;2023-04-01T16:56:10;7.67;;;4.60;;
7831;SDS011;3961;42.058;25.586;2023-04-01T16:58:43;8.40;;;4.60;;
7831;SDS011;3961;42.058;25.586;2023-04-01T17:01:30;10.30;;;4.10;;
7831;SDS011;3961;42.058;25.586;2023-04-01T17:04:14;6.23;;;4.20;;
7831;SDS011;3961;42.058;25.586;2023-04-01T17:06:52;5.23;;;4.03;;
7831;SDS011;3961;42.058;25.586;2023-04-01T17:09:35;8.03;;;4.30;;
7831;SDS011;3961;42.058;25.586;2023-04-01T17:12:20;8.43;;;3.97;;
7831;SDS011;3961;42.058;25.586;2023-04-01T17:15:05;5.83;;;3.97;;
7831;SDS011;3961;42.058;25.586;2023-04-01T17:18:05;7.53;;;3.60;;
7831;SDS011;3961;42.058;25.586;2023-04-01T17:23:42;5.43;;;3.60;;
7831;SDS011;3961;42.058;25.586;2023-04-01T17:49:37;5.73;;;3.00;;
7831;SDS011;3961;42.058;25.586;2023-04-01T18:05:51;6.17;;;3.27;;
7831;SDS011;3961;42.058;25.586;2023-04-01T18:11:12;7.20;;;3.33;;
7831;SDS011;3961;42.058;25.586;2023-04-01T18:13:49;6.70;;;3.20;;
7831;SDS011;3961;42.058;25.586;2023-04-01T18:22:08;2.83;;;2.40;;
7831;SDS011;3961;42.058;25.586;2023-04-01T18:24:43;5.47;;;2.93;;
7831;SDS011;3961;42.058;25.586;2023-04-01T18:27:24;7.77;;;3.27;;
7831;SDS011;3961;42.058;25.586;2023-04-01T18:29:59;6.43;;;3.60;;
7831;SDS011;3961;42.058;25.586;2023-04-01T18:35:52;3.97;;;3.20;;
7831;SDS011;3961;42.058;25.586;2023-04-01T18:38:30;6.10;;;3.13;;
7831;SDS011;3961;42.058;25.586;2023-04-01T18:49:19;3.97;;;2.70;;
7831;SDS011;3961;42.058;25.586;2023-04-01T18:51:50;7.37;;;3.63;;
7831;SDS011;3961;42.058;25.586;2023-04-01T18:54:26;3.60;;;2.77;;
7831;SDS011;3961;42.058;25.586;2023-04-01T18:57:07;4.70;;;2.90;;
7831;SDS011;3961;42.058;25.586;2023-04-01T18:59:42;3.07;;;2.43;;
7831;SDS011;3961;42.058;25.586;2023-04-01T19:02:40;4.93;;;3.30;;
7831;SDS011;3961;42.058;25.586;2023-04-01T19:05:32;4.83;;;3.07;;
7831;SDS011;3961;42.058;25.586;2023-04-01T19:14:16;3.87;;;2.50;;
7831;SDS011;3961;42.058;25.586;2023-04-01T19:22:03;2.87;;;2.23;;
7831;SDS011;3961;42.058;25.586;2023-04-01T19:35:42;3.37;;;1.60;;
7831;SDS011;3961;42.058;25.586;2023-04-01T19:41:06;2.03;;;1.67;;
7831;SDS011;3961;42.058;25.586;2023-04-01T19:43:47;2.20;;;1.57;;
7831;SDS011;3961;42.058;25.586;2023-04-01T19:46:28;1.77;;;1.40;;
7831;SDS011;3961;42.058;25.586;2023-04-01T19:57:09;1.60;;;1.50;;
7831;SDS011;3961;42.058;25.586;2023-04-01T20:08:20;1.70;;;1.57;;
7831;SDS011;3961;42.058;25.586;2023-04-01T20:11:01;3.83;;;1.50;;
7831;SDS011;3961;42.058;25.586;2023-04-01T20:13:42;3.57;;;1.60;;
7831;SDS011;3961;42.058;25.586;2023-04-01T20:16:17;1.60;;;1.50;;
7831;SDS011;3961;42.058;25.586;2023-04-01T20:18:55;1.50;;;1.40;;
7831;SDS011;3961;42.058;25.586;2023-04-01T20:21:35;2.13;;;1.60;;
7831;SDS011;3961;42.058;25.586;2023-04-01T20:24:17;1.67;;;1.47;;
7831;SDS011;3961;42.058;25.586;2023-04-01T20:26:50;1.50;;;1.40;;
7831;SDS011;3961;42.058;25.586;2023-04-01T20:34:44;1.87;;;1.60;;
7831;SDS011;3961;42.058;25.586;2023-04-01T20:39:52;1.57;;;1.47;;
7831;SDS011;3961;42.058;25.586;2023-04-01T20:42:29;1.90;;;1.60;;
7831;SDS011;3961;42.058;25.586;2023-04-01T20:45:04;1.80;;;1.53;;
7831;SDS011;3961;42.058;25.586;2023-04-01T20:50:28;1.70;;;1.60;;
7831;SDS011;3961;42.058;25.586;2023-04-01T20:53:05;1.60;;;1.50;;
7831;SDS011;3961;42.058;25.586;2023-04-01T21:01:30;2.33;;;1.80;;
7831;SDS011;3961;42.058;25.586;2023-04-01T21:20:25;2.03;;;1.77;;
7831;SDS011;3961;42.058;25.586;2023-04-01T21:29:03;3.37;;;1.80;;
7831;SDS011;3961;42.058;25.586;2023-04-01T21:31:53;7.27;;;2.00;;
7831;SDS011;3961;42.058;25.586;2023-04-01T21:40:17;1.90;;;1.80;;
7831;SDS011;3961;42.058;25.586;2023-04-01T21:45:23;1.70;;;1.60;;
7831;SDS011;3961;42.058;25.586;2023-04-01T21:48:15;1.70;;;1.60;;
7831;SDS011;3961;42.058;25.586;2023-04-01T22:12:09;2.20;;;2.00;;
7831;SDS011;3961;42.058;25.586;2023-04-01T22:17:24;2.00;;;1.90;;
7831;SDS011;3961;42.058;25.586;2023-04-01T22:25:25;2.30;;;2.10;;
7831;SDS011;3961;42.058;25.586;2023-04-01T22:30:50;2.20;;;1.90;;
7831;SDS011;3961;42.058;25.586;2023-04-01T22:35:52;2.30;;;2.10;;
7831;SDS011;3961;42.058;25.586;2023-04-01T22:38:40;2.40;;;2.20;;
7831;SDS011;3961;42.058;25.586;2023-04-01T22:49:50;2.20;;;2.00;;
7831;SDS011;3961;42.058;25.586;2023-04-01T22:52:30;2.27;;;2.07;;
7831;SDS011;3961;42.058;25.586;2023-04-01T22:55:04;2.13;;;2.00;;
7831;SDS011;3961;42.058;25.586;2023-04-01T22:57:40;2.37;;;2.17;;
7831;SDS011;3961;42.058;25.586;2023-04-01T23:00:16;1.93;;;1.80;;
7831;SDS011;3961;42.058;25.586;2023-04-01T23:02:59;2.40;;;2.20;;
7831;SDS011;3961;42.058;25.586;2023-04-01T23:05:26;2.43;;;2.10;;
7831;SDS011;3961;42.058;25.586;2023-04-01T23:13:20;2.60;;;2.10;;
7831;SDS011;3961;42.058;25.586;2023-04-01T23:15:52;2.50;;;2.30;;
7831;SDS011;3961;42.058;25.586;2023-04-01T23:26:53;2.20;;;2.00;;
7831;SDS011;3961;42.058;25.586;2023-04-01T23:29:24;2.10;;;2.00;;
7831;SDS011;3961;42.058;25.586;2023-04-01T23:34:28;2.57;;;1.80;;
7831;SDS011;3961;42.058;25.586;2023-04-01T23:36:57;3.30;;;2.07;;
7831;SDS011;3961;42.058;25.586;2023-04-01T23:39:35;2.20;;;2.00;;
7831;SDS011;3961;42.058;25.586;2023-04-01T23:42:04;1.93;;;1.83;;
7831;SDS011;3961;42.058;25.586;2023-04-01T23:44:33;1.80;;;1.70;;
7831;SDS011;3961;42.058;25.586;2023-04-01T23:47:00;2.03;;;1.83;;
7831;SDS011;3961;42.058;25.586;2023-04-01T23:49:38;2.70;;;2.20;;
7831;SDS011;3961;42.058;25.586;2023-04-01T23:52:29;2.47;;;2.00;;
